sensor_id;sensor_type;location;lat;lon;timestamp;temperature;humidity
9542;DHT22;4809;48.224;8.572;2022-09-02T00:01:15;14.30;79.90
9542;DHT22;4809;48.224;8.572;2022-09-02T00:03:42;14.20;80.10
9542;DHT22;4809;48.224;8.572;2022-09-02T00:06:08;14.20;80.20
9542;DHT22;4809;48.224;8.572;2022-09-02T00:08:34;14.10;80.30
9542;DHT22;4809;48.224;8.572;2022-09-02T00:11:01;14.10;80.10
9542;DHT22;4809;48.224;8.572;2022-09-02T00:13:28;14.00;80.40
9542;DHT22;4809;48.224;8.572;2022-09-02T00:15:54;13.90;80.30
9542;DHT22;4809;48.224;8.572;2022-09-02T00:18:21;13.80;80.70
9542;DHT22;4809;48.224;8.572;2022-09-02T00:20:48;13.70;81.30
9542;DHT22;4809;48.224;8.572;2022-09-02T00:23:14;13.70;81.00
9542;DHT22;4809;48.224;8.572;2022-09-02T00:25:42;13.60;81.10
9542;DHT22;4809;48.224;8.572;2022-09-02T00:28:10;13.60;81.30
9542;DHT22;4809;48.224;8.572;2022-09-02T00:30:37;13.60;80.90
9542;DHT22;4809;48.224;8.572;2022-09-02T00:33:04;13.50;80.70
9542;DHT22;4809;48.224;8.572;2022-09-02T00:35:30;13.40;80.60
9542;DHT22;4809;48.224;8.572;2022-09-02T00:37:56;13.30;80.70
9542;DHT22;4809;48.224;8.572;2022-09-02T00:40:22;13.20;80.60
9542;DHT22;4809;48.224;8.572;2022-09-02T00:42:49;13.10;80.70
9542;DHT22;4809;48.224;8.572;2022-09-02T00:45:15;13.00;81.00
9542;DHT22;4809;48.224;8.572;2022-09-02T00:47:43;13.00;81.30
9542;DHT22;4809;48.224;8.572;2022-09-02T00:50:12;12.90;81.40
9542;DHT22;4809;48.224;8.572;2022-09-02T00:53:04;12.90;81.50
9542;DHT22;4809;48.224;8.572;2022-09-02T00:55:34;12.90;81.80
9542;DHT22;4809;48.224;8.572;2022-09-02T00:58:17;12.80;81.70
9542;DHT22;4809;48.224;8.572;2022-09-02T01:00:46;12.90;81.60
9542;DHT22;4809;48.224;8.572;2022-09-02T01:03:17;12.90;81.00
9542;DHT22;4809;48.224;8.572;2022-09-02T01:05:44;13.00;80.80
9542;DHT22;4809;48.224;8.572;2022-09-02T01:08:24;13.00;80.50
9542;DHT22;4809;48.224;8.572;2022-09-02T01:10:53;13.10;80.20
9542;DHT22;4809;48.224;8.572;2022-09-02T01:13:26;13.10;79.60
9542;DHT22;4809;48.224;8.572;2022-09-02T01:16:00;13.00;79.00
9542;DHT22;4809;48.224;8.572;2022-09-02T01:18:28;12.90;79.40
9542;DHT22;4809;48.224;8.572;2022-09-02T01:20:59;12.90;79.70
9542;DHT22;4809;48.224;8.572;2022-09-02T01:23:27;12.80;80.00
9542;DHT22;4809;48.224;8.572;2022-09-02T01:25:54;12.70;80.00
9542;DHT22;4809;48.224;8.572;2022-09-02T01:28:20;12.60;80.40
9542;DHT22;4809;48.224;8.572;2022-09-02T01:30:49;12.60;80.40
9542;DHT22;4809;48.224;8.572;2022-09-02T01:33:16;12.50;80.40
9542;DHT22;4809;48.224;8.572;2022-09-02T01:35:43;12.50;80.50
9542;DHT22;4809;48.224;8.572;2022-09-02T01:38:10;12.50;80.40
9542;DHT22;4809;48.224;8.572;2022-09-02T01:40:36;12.50;80.40
9542;DHT22;4809;48.224;8.572;2022-09-02T01:43:06;12.50;80.70
9542;DHT22;4809;48.224;8.572;2022-09-02T01:45:34;12.50;80.40
9542;DHT22;4809;48.224;8.572;2022-09-02T01:48:00;12.40;80.40
9542;DHT22;4809;48.224;8.572;2022-09-02T01:50:26;12.40;80.80
9542;DHT22;4809;48.224;8.572;2022-09-02T01:52:52;12.40;80.80
9542;DHT22;4809;48.224;8.572;2022-09-02T01:55:18;12.30;80.80
9542;DHT22;4809;48.224;8.572;2022-09-02T01:57:44;12.30;80.70
9542;DHT22;4809;48.224;8.572;2022-09-02T02:00:12;12.30;80.80
9542;DHT22;4809;48.224;8.572;2022-09-02T02:02:38;12.20;81.00
9542;DHT22;4809;48.224;8.572;2022-09-02T02:05:04;12.20;81.00
9542;DHT22;4809;48.224;8.572;2022-09-02T02:07:30;12.20;81.00
9542;DHT22;4809;48.224;8.572;2022-09-02T02:09:56;12.10;81.40
9542;DHT22;4809;48.224;8.572;2022-09-02T02:12:22;12.00;82.00
9542;DHT22;4809;48.224;8.572;2022-09-02T02:14:48;12.00;82.40
9542;DHT22;4809;48.224;8.572;2022-09-02T02:17:13;11.90;82.20
9542;DHT22;4809;48.224;8.572;2022-09-02T02:19:39;11.80;82.80
9542;DHT22;4809;48.224;8.572;2022-09-02T02:22:05;11.80;82.90
9542;DHT22;4809;48.224;8.572;2022-09-02T02:24:31;11.80;82.50
9542;DHT22;4809;48.224;8.572;2022-09-02T02:26:57;11.80;82.20
9542;DHT22;4809;48.224;8.572;2022-09-02T02:29:22;11.90;82.60
9542;DHT22;4809;48.224;8.572;2022-09-02T02:31:49;11.90;82.60
9542;DHT22;4809;48.224;8.572;2022-09-02T02:34:14;11.90;82.80
9542;DHT22;4809;48.224;8.572;2022-09-02T02:36:40;11.80;82.90
9542;DHT22;4809;48.224;8.572;2022-09-02T02:39:07;11.80;83.30
9542;DHT22;4809;48.224;8.572;2022-09-02T02:41:34;11.70;82.90
9542;DHT22;4809;48.224;8.572;2022-09-02T02:44:00;11.70;82.60
9542;DHT22;4809;48.224;8.572;2022-09-02T02:46:26;11.80;82.30
9542;DHT22;4809;48.224;8.572;2022-09-02T02:48:57;11.80;82.00
9542;DHT22;4809;48.224;8.572;2022-09-02T02:51:23;11.90;81.50
9542;DHT22;4809;48.224;8.572;2022-09-02T02:53:48;11.90;81.80
9542;DHT22;4809;48.224;8.572;2022-09-02T02:56:14;11.90;81.80
9542;DHT22;4809;48.224;8.572;2022-09-02T02:58:39;12.00;82.10
9542;DHT22;4809;48.224;8.572;2022-09-02T03:01:05;11.90;82.00
9542;DHT22;4809;48.224;8.572;2022-09-02T03:03:32;11.90;82.00
9542;DHT22;4809;48.224;8.572;2022-09-02T03:05:58;11.90;82.60
9542;DHT22;4809;48.224;8.572;2022-09-02T03:08:24;12.00;82.90
9542;DHT22;4809;48.224;8.572;2022-09-02T03:10:52;12.00;83.10
9542;DHT22;4809;48.224;8.572;2022-09-02T03:13:20;12.00;83.90
9542;DHT22;4809;48.224;8.572;2022-09-02T03:15:46;12.00;83.40
9542;DHT22;4809;48.224;8.572;2022-09-02T03:18:12;12.00;83.50
9542;DHT22;4809;48.224;8.572;2022-09-02T03:20:39;12.00;83.70
9542;DHT22;4809;48.224;8.572;2022-09-02T03:23:05;12.00;83.80
9542;DHT22;4809;48.224;8.572;2022-09-02T03:25:31;12.00;83.60
9542;DHT22;4809;48.224;8.572;2022-09-02T03:27:59;12.00;83.40
9542;DHT22;4809;48.224;8.572;2022-09-02T03:30:27;12.00;83.10
9542;DHT22;4809;48.224;8.572;2022-09-02T03:32:58;12.00;83.30
9542;DHT22;4809;48.224;8.572;2022-09-02T03:35:25;12.00;83.20
9542;DHT22;4809;48.224;8.572;2022-09-02T03:37:52;12.00;82.90
9542;DHT22;4809;48.224;8.572;2022-09-02T03:40:24;12.00;82.90
9542;DHT22;4809;48.224;8.572;2022-09-02T03:42:50;12.00;82.70
9542;DHT22;4809;48.224;8.572;2022-09-02T03:45:17;12.00;82.30
9542;DHT22;4809;48.224;8.572;2022-09-02T03:47:44;11.90;82.10
9542;DHT22;4809;48.224;8.572;2022-09-02T03:50:32;11.90;81.90
9542;DHT22;4809;48.224;8.572;2022-09-02T03:52:58;11.90;82.30
9542;DHT22;4809;48.224;8.572;2022-09-02T03:55:25;11.80;82.50
9542;DHT22;4809;48.224;8.572;2022-09-02T03:57:51;11.80;82.80
9542;DHT22;4809;48.224;8.572;2022-09-02T04:00:19;11.80;82.90
9542;DHT22;4809;48.224;8.572;2022-09-02T04:02:45;11.80;82.50
9542;DHT22;4809;48.224;8.572;2022-09-02T04:05:11;11.80;82.50
9542;DHT22;4809;48.224;8.572;2022-09-02T04:07:38;11.70;82.80
9542;DHT22;4809;48.224;8.572;2022-09-02T04:10:05;11.70;83.00
9542;DHT22;4809;48.224;8.572;2022-09-02T04:12:34;11.60;83.00
9542;DHT22;4809;48.224;8.572;2022-09-02T04:15:01;11.60;82.90
9542;DHT22;4809;48.224;8.572;2022-09-02T04:21:17;11.60;83.00
9542;DHT22;4809;48.224;8.572;2022-09-02T04:23:44;11.60;82.90
9542;DHT22;4809;48.224;8.572;2022-09-02T04:26:12;11.60;83.40
9542;DHT22;4809;48.224;8.572;2022-09-02T04:28:38;11.50;82.80
9542;DHT22;4809;48.224;8.572;2022-09-02T04:31:09;11.50;81.80
9542;DHT22;4809;48.224;8.572;2022-09-02T04:33:36;11.40;81.50
9542;DHT22;4809;48.224;8.572;2022-09-02T04:36:15;11.40;82.10
9542;DHT22;4809;48.224;8.572;2022-09-02T04:38:41;11.30;83.10
9542;DHT22;4809;48.224;8.572;2022-09-02T04:41:10;11.20;83.50
9542;DHT22;4809;48.224;8.572;2022-09-02T04:43:36;11.20;83.60
9542;DHT22;4809;48.224;8.572;2022-09-02T04:46:07;11.20;83.80
9542;DHT22;4809;48.224;8.572;2022-09-02T04:48:34;11.20;83.10
9542;DHT22;4809;48.224;8.572;2022-09-02T04:51:13;11.20;83.40
9542;DHT22;4809;48.224;8.572;2022-09-02T04:53:39;11.10;83.30
9542;DHT22;4809;48.224;8.572;2022-09-02T04:56:07;11.10;84.00
9542;DHT22;4809;48.224;8.572;2022-09-02T04:58:34;11.10;84.40
9542;DHT22;4809;48.224;8.572;2022-09-02T05:01:08;11.10;84.40
9542;DHT22;4809;48.224;8.572;2022-09-02T05:03:35;11.10;84.50
9542;DHT22;4809;48.224;8.572;2022-09-02T05:06:04;11.10;83.90
9542;DHT22;4809;48.224;8.572;2022-09-02T05:08:31;11.10;83.80
9542;DHT22;4809;48.224;8.572;2022-09-02T05:10:56;11.10;84.00
9542;DHT22;4809;48.224;8.572;2022-09-02T05:13:23;11.10;83.90
9542;DHT22;4809;48.224;8.572;2022-09-02T05:15:50;11.10;83.90
9542;DHT22;4809;48.224;8.572;2022-09-02T05:18:16;11.20;83.50
9542;DHT22;4809;48.224;8.572;2022-09-02T05:20:42;11.20;83.70
9542;DHT22;4809;48.224;8.572;2022-09-02T05:23:11;11.30;83.50
9542;DHT22;4809;48.224;8.572;2022-09-02T05:25:38;11.30;83.40
9542;DHT22;4809;48.224;8.572;2022-09-02T05:28:05;11.40;83.50
9542;DHT22;4809;48.224;8.572;2022-09-02T05:30:34;11.40;83.50
9542;DHT22;4809;48.224;8.572;2022-09-02T05:33:00;11.50;83.30
9542;DHT22;4809;48.224;8.572;2022-09-02T05:35:27;11.60;82.80
9542;DHT22;4809;48.224;8.572;2022-09-02T05:37:53;11.80;82.20
9542;DHT22;4809;48.224;8.572;2022-09-02T05:40:20;11.90;82.30
9542;DHT22;4809;48.224;8.572;2022-09-02T05:42:45;12.00;81.90
9542;DHT22;4809;48.224;8.572;2022-09-02T05:45:11;12.10;81.40
9542;DHT22;4809;48.224;8.572;2022-09-02T05:47:38;12.20;81.20
9542;DHT22;4809;48.224;8.572;2022-09-02T05:50:04;12.30;80.90
9542;DHT22;4809;48.224;8.572;2022-09-02T05:52:30;12.40;80.50
9542;DHT22;4809;48.224;8.572;2022-09-02T05:54:56;12.60;80.40
9542;DHT22;4809;48.224;8.572;2022-09-02T05:57:23;12.70;80.20
9542;DHT22;4809;48.224;8.572;2022-09-02T05:59:48;12.90;80.20
9542;DHT22;4809;48.224;8.572;2022-09-02T06:02:21;13.10;79.80
9542;DHT22;4809;48.224;8.572;2022-09-02T06:04:48;13.20;78.70
9542;DHT22;4809;48.224;8.572;2022-09-02T06:07:15;13.40;78.10
9542;DHT22;4809;48.224;8.572;2022-09-02T06:09:41;13.40;77.80
9542;DHT22;4809;48.224;8.572;2022-09-02T06:12:10;13.60;77.30
9542;DHT22;4809;48.224;8.572;2022-09-02T06:14:36;13.70;77.00
9542;DHT22;4809;48.224;8.572;2022-09-02T06:17:03;13.80;76.50
9542;DHT22;4809;48.224;8.572;2022-09-02T06:19:29;14.00;76.30
9542;DHT22;4809;48.224;8.572;2022-09-02T06:21:57;14.00;75.50
9542;DHT22;4809;48.224;8.572;2022-09-02T06:24:24;14.20;75.10
9542;DHT22;4809;48.224;8.572;2022-09-02T06:26:51;14.30;74.20
9542;DHT22;4809;48.224;8.572;2022-09-02T06:29:21;14.40;74.30
9542;DHT22;4809;48.224;8.572;2022-09-02T06:31:48;14.50;73.30
9542;DHT22;4809;48.224;8.572;2022-09-02T06:34:14;14.60;73.50
9542;DHT22;4809;48.224;8.572;2022-09-02T06:36:42;14.80;72.70
9542;DHT22;4809;48.224;8.572;2022-09-02T06:39:11;14.80;71.80
9542;DHT22;4809;48.224;8.572;2022-09-02T06:41:39;15.00;71.40
9542;DHT22;4809;48.224;8.572;2022-09-02T06:44:06;15.20;70.50
9542;DHT22;4809;48.224;8.572;2022-09-02T06:46:37;15.30;70.40
9542;DHT22;4809;48.224;8.572;2022-09-02T06:49:04;15.30;69.50
9542;DHT22;4809;48.224;8.572;2022-09-02T06:51:39;15.40;69.50
9542;DHT22;4809;48.224;8.572;2022-09-02T06:54:07;15.50;69.20
9542;DHT22;4809;48.224;8.572;2022-09-02T06:56:33;15.70;68.20
9542;DHT22;4809;48.224;8.572;2022-09-02T06:58:59;15.80;67.50
9542;DHT22;4809;48.224;8.572;2022-09-02T07:01:28;16.00;68.70
9542;DHT22;4809;48.224;8.572;2022-09-02T07:03:56;16.20;67.80
9542;DHT22;4809;48.224;8.572;2022-09-02T07:06:46;16.30;66.50
9542;DHT22;4809;48.224;8.572;2022-09-02T07:09:15;16.50;66.30
9542;DHT22;4809;48.224;8.572;2022-09-02T07:11:41;16.60;65.00
9542;DHT22;4809;48.224;8.572;2022-09-02T07:14:07;16.70;65.60
9542;DHT22;4809;48.224;8.572;2022-09-02T07:16:36;16.90;65.60
9542;DHT22;4809;48.224;8.572;2022-09-02T07:19:03;17.10;65.40
9542;DHT22;4809;48.224;8.572;2022-09-02T07:21:29;17.20;64.30
9542;DHT22;4809;48.224;8.572;2022-09-02T07:23:59;17.30;63.40
9542;DHT22;4809;48.224;8.572;2022-09-02T07:26:26;17.50;63.30
9542;DHT22;4809;48.224;8.572;2022-09-02T07:28:53;17.70;63.20
9542;DHT22;4809;48.224;8.572;2022-09-02T07:31:19;17.90;62.60
9542;DHT22;4809;48.224;8.572;2022-09-02T07:33:44;18.00;62.30
9542;DHT22;4809;48.224;8.572;2022-09-02T07:36:12;18.10;62.90
9542;DHT22;4809;48.224;8.572;2022-09-02T07:38:38;18.20;62.60
9542;DHT22;4809;48.224;8.572;2022-09-02T07:41:06;18.10;61.70
9542;DHT22;4809;48.224;8.572;2022-09-02T07:43:33;18.30;62.50
9542;DHT22;4809;48.224;8.572;2022-09-02T07:45:59;18.30;61.70
9542;DHT22;4809;48.224;8.572;2022-09-02T07:48:27;18.50;60.60
9542;DHT22;4809;48.224;8.572;2022-09-02T07:50:53;18.60;61.30
9542;DHT22;4809;48.224;8.572;2022-09-02T07:53:19;18.70;60.50
9542;DHT22;4809;48.224;8.572;2022-09-02T07:55:45;19.00;60.50
9542;DHT22;4809;48.224;8.572;2022-09-02T07:58:12;19.20;60.10
9542;DHT22;4809;48.224;8.572;2022-09-02T08:00:39;19.30;60.40
9542;DHT22;4809;48.224;8.572;2022-09-02T08:03:07;19.20;58.40
9542;DHT22;4809;48.224;8.572;2022-09-02T08:05:34;19.30;59.80
9542;DHT22;4809;48.224;8.572;2022-09-02T08:08:00;19.40;59.80
9542;DHT22;4809;48.224;8.572;2022-09-02T08:10:27;19.40;58.70
9542;DHT22;4809;48.224;8.572;2022-09-02T08:12:54;19.40;58.80
9542;DHT22;4809;48.224;8.572;2022-09-02T08:15:21;19.60;58.60
9542;DHT22;4809;48.224;8.572;2022-09-02T08:17:48;19.80;58.70
9542;DHT22;4809;48.224;8.572;2022-09-02T08:20:14;19.90;58.40
9542;DHT22;4809;48.224;8.572;2022-09-02T08:22:42;20.10;58.20
9542;DHT22;4809;48.224;8.572;2022-09-02T08:25:09;20.10;57.70
9542;DHT22;4809;48.224;8.572;2022-09-02T08:27:35;20.30;58.30
9542;DHT22;4809;48.224;8.572;2022-09-02T08:30:05;20.40;59.10
9542;DHT22;4809;48.224;8.572;2022-09-02T08:32:31;20.50;57.50
9542;DHT22;4809;48.224;8.572;2022-09-02T08:34:58;20.40;57.10
9542;DHT22;4809;48.224;8.572;2022-09-02T08:37:27;20.60;57.30
9542;DHT22;4809;48.224;8.572;2022-09-02T08:39:53;20.90;58.00
9542;DHT22;4809;48.224;8.572;2022-09-02T08:42:31;21.00;57.30
9542;DHT22;4809;48.224;8.572;2022-09-02T08:45:11;21.20;55.50
9542;DHT22;4809;48.224;8.572;2022-09-02T08:47:40;21.30;56.30
9542;DHT22;4809;48.224;8.572;2022-09-02T08:50:17;21.40;55.20
9542;DHT22;4809;48.224;8.572;2022-09-02T08:53:10;21.60;56.10
9542;DHT22;4809;48.224;8.572;2022-09-02T08:55:46;21.70;54.80
9542;DHT22;4809;48.224;8.572;2022-09-02T08:58:16;21.90;55.50
9542;DHT22;4809;48.224;8.572;2022-09-02T09:00:45;22.10;55.90
9542;DHT22;4809;48.224;8.572;2022-09-02T09:03:36;22.10;53.60
9542;DHT22;4809;48.224;8.572;2022-09-02T09:08:42;22.20;54.10
9542;DHT22;4809;48.224;8.572;2022-09-02T09:11:33;22.40;54.30
9542;DHT22;4809;48.224;8.572;2022-09-02T09:16:59;22.90;51.90
9542;DHT22;4809;48.224;8.572;2022-09-02T09:19:49;23.10;51.40
9542;DHT22;4809;48.224;8.572;2022-09-02T09:22:19;23.10;52.10
9542;DHT22;4809;48.224;8.572;2022-09-02T09:24:48;23.20;52.80
9542;DHT22;4809;48.224;8.572;2022-09-02T09:27:20;23.30;50.50
9542;DHT22;4809;48.224;8.572;2022-09-02T09:29:46;23.40;50.20
9542;DHT22;4809;48.224;8.572;2022-09-02T09:32:26;23.60;51.40
9542;DHT22;4809;48.224;8.572;2022-09-02T09:34:58;23.60;49.80
9542;DHT22;4809;48.224;8.572;2022-09-02T09:37:32;23.80;50.30
9542;DHT22;4809;48.224;8.572;2022-09-02T09:39:58;23.80;51.60
9542;DHT22;4809;48.224;8.572;2022-09-02T09:42:43;24.00;49.50
9542;DHT22;4809;48.224;8.572;2022-09-02T09:48:39;24.20;49.30
9542;DHT22;4809;48.224;8.572;2022-09-02T09:53:27;24.10;46.90
9542;DHT22;4809;48.224;8.572;2022-09-02T09:55:55;24.10;48.50
9542;DHT22;4809;48.224;8.572;2022-09-02T09:58:26;24.30;48.50
9542;DHT22;4809;48.224;8.572;2022-09-02T10:00:56;24.50;48.80
9542;DHT22;4809;48.224;8.572;2022-09-02T10:03:26;24.70;46.80
9542;DHT22;4809;48.224;8.572;2022-09-02T10:05:57;24.90;48.50
9542;DHT22;4809;48.224;8.572;2022-09-02T10:08:27;25.20;46.70
9542;DHT22;4809;48.224;8.572;2022-09-02T10:11:00;25.10;47.80
9542;DHT22;4809;48.224;8.572;2022-09-02T10:13:32;25.00;44.90
9542;DHT22;4809;48.224;8.572;2022-09-02T10:16:07;25.00;46.60
9542;DHT22;4809;48.224;8.572;2022-09-02T10:18:53;25.20;47.50
9542;DHT22;4809;48.224;8.572;2022-09-02T10:26:58;26.00;46.60
9542;DHT22;4809;48.224;8.572;2022-09-02T10:32:13;25.90;45.60
9542;DHT22;4809;48.224;8.572;2022-09-02T10:38:06;26.30;42.90
9542;DHT22;4809;48.224;8.572;2022-09-02T10:40:27;26.50;44.50
9542;DHT22;4809;48.224;8.572;2022-09-02T10:45:49;26.70;42.30
9542;DHT22;4809;48.224;8.572;2022-09-02T10:59:37;27.30;42.40
9542;DHT22;4809;48.224;8.572;2022-09-02T11:05:44;27.40;40.70
9542;DHT22;4809;48.224;8.572;2022-09-02T11:08:09;27.60;41.20
9542;DHT22;4809;48.224;8.572;2022-09-02T11:10:40;27.60;38.00
9542;DHT22;4809;48.224;8.572;2022-09-02T11:13:13;27.80;38.60
9542;DHT22;4809;48.224;8.572;2022-09-02T11:18:39;27.80;40.40
9542;DHT22;4809;48.224;8.572;2022-09-02T11:24:15;28.00;38.90
9542;DHT22;4809;48.224;8.572;2022-09-02T11:27:00;28.10;40.20
9542;DHT22;4809;48.224;8.572;2022-09-02T11:29:34;27.80;38.50
9542;DHT22;4809;48.224;8.572;2022-09-02T11:37:02;28.40;38.00
9542;DHT22;4809;48.224;8.572;2022-09-02T11:39:48;28.60;36.90
9542;DHT22;4809;48.224;8.572;2022-09-02T11:45:04;28.90;36.50
9542;DHT22;4809;48.224;8.572;2022-09-02T11:55:50;28.30;36.10
9542;DHT22;4809;48.224;8.572;2022-09-02T11:58:37;28.20;35.70
9542;DHT22;4809;48.224;8.572;2022-09-02T12:01:29;28.40;36.90
9542;DHT22;4809;48.224;8.572;2022-09-02T12:04:03;28.80;36.30
9542;DHT22;4809;48.224;8.572;2022-09-02T12:06:29;28.50;35.90
9542;DHT22;4809;48.224;8.572;2022-09-02T12:08:58;28.00;36.60
9542;DHT22;4809;48.224;8.572;2022-09-02T12:11:37;28.10;37.90
9542;DHT22;4809;48.224;8.572;2022-09-02T12:14:07;28.50;37.90
9542;DHT22;4809;48.224;8.572;2022-09-02T12:16:41;29.00;35.60
9542;DHT22;4809;48.224;8.572;2022-09-02T12:27:32;29.70;36.90
9542;DHT22;4809;48.224;8.572;2022-09-02T12:29:58;29.90;33.80
9542;DHT22;4809;48.224;8.572;2022-09-02T12:35:13;29.10;34.10
9542;DHT22;4809;48.224;8.572;2022-09-02T12:37:53;29.30;37.60
9542;DHT22;4809;48.224;8.572;2022-09-02T12:40:24;29.70;35.00
9542;DHT22;4809;48.224;8.572;2022-09-02T12:42:52;29.70;33.00
9542;DHT22;4809;48.224;8.572;2022-09-02T12:45:26;29.60;33.80
9542;DHT22;4809;48.224;8.572;2022-09-02T12:48:14;29.70;33.10
9542;DHT22;4809;48.224;8.572;2022-09-02T12:50:54;29.90;34.80
9542;DHT22;4809;48.224;8.572;2022-09-02T12:56:06;30.00;33.00
9542;DHT22;4809;48.224;8.572;2022-09-02T12:58:45;29.90;32.90
9542;DHT22;4809;48.224;8.572;2022-09-02T13:04:14;29.90;33.80
9542;DHT22;4809;48.224;8.572;2022-09-02T13:18:22;30.00;35.50
9542;DHT22;4809;48.224;8.572;2022-09-02T13:31:22;30.90;33.30
9542;DHT22;4809;48.224;8.572;2022-09-02T13:34:04;31.00;32.50
9542;DHT22;4809;48.224;8.572;2022-09-02T13:36:41;31.00;31.50
9542;DHT22;4809;48.224;8.572;2022-09-02T13:39:18;31.00;34.20
9542;DHT22;4809;48.224;8.572;2022-09-02T13:41:44;31.20;34.10
9542;DHT22;4809;48.224;8.572;2022-09-02T13:44:12;31.20;32.00
9542;DHT22;4809;48.224;8.572;2022-09-02T13:49:26;31.40;32.10
9542;DHT22;4809;48.224;8.572;2022-09-02T13:51:54;31.30;31.10
9542;DHT22;4809;48.224;8.572;2022-09-02T13:54:39;31.40;31.10
9542;DHT22;4809;48.224;8.572;2022-09-02T13:57:10;31.70;32.60
9542;DHT22;4809;48.224;8.572;2022-09-02T13:59:41;31.90;32.20
9542;DHT22;4809;48.224;8.572;2022-09-02T14:02:23;32.00;31.40
9542;DHT22;4809;48.224;8.572;2022-09-02T14:05:10;32.10;31.10
9542;DHT22;4809;48.224;8.572;2022-09-02T14:07:40;32.20;31.20
9542;DHT22;4809;48.224;8.572;2022-09-02T14:10:10;32.50;30.60
9542;DHT22;4809;48.224;8.572;2022-09-02T14:12:38;32.70;31.00
9542;DHT22;4809;48.224;8.572;2022-09-02T14:15:11;32.70;30.10
9542;DHT22;4809;48.224;8.572;2022-09-02T14:17:37;32.80;30.60
9542;DHT22;4809;48.224;8.572;2022-09-02T14:20:18;32.80;29.90
9542;DHT22;4809;48.224;8.572;2022-09-02T14:22:58;32.90;29.70
9542;DHT22;4809;48.224;8.572;2022-09-02T14:25:25;32.80;30.00
9542;DHT22;4809;48.224;8.572;2022-09-02T14:27:59;32.90;30.30
9542;DHT22;4809;48.224;8.572;2022-09-02T14:30:34;33.00;30.20
9542;DHT22;4809;48.224;8.572;2022-09-02T14:46:32;33.10;29.70
9542;DHT22;4809;48.224;8.572;2022-09-02T14:51:54;33.10;30.70
9542;DHT22;4809;48.224;8.572;2022-09-02T14:54:56;33.00;29.50
9542;DHT22;4809;48.224;8.572;2022-09-02T14:59:55;32.90;29.90
9542;DHT22;4809;48.224;8.572;2022-09-02T15:04:54;32.60;29.50
9542;DHT22;4809;48.224;8.572;2022-09-02T15:07:21;32.20;30.10
9542;DHT22;4809;48.224;8.572;2022-09-02T15:09:46;31.90;29.90
9542;DHT22;4809;48.224;8.572;2022-09-02T15:12:16;31.90;30.30
9542;DHT22;4809;48.224;8.572;2022-09-02T15:14:44;32.10;30.20
9542;DHT22;4809;48.224;8.572;2022-09-02T15:17:13;32.40;29.90
9542;DHT22;4809;48.224;8.572;2022-09-02T15:19:40;32.70;30.00
9542;DHT22;4809;48.224;8.572;2022-09-02T15:22:05;33.10;29.20
9542;DHT22;4809;48.224;8.572;2022-09-02T15:24:31;33.80;29.00
9542;DHT22;4809;48.224;8.572;2022-09-02T15:26:57;35.00;26.90
9542;DHT22;4809;48.224;8.572;2022-09-02T15:29:23;36.10;25.30
9542;DHT22;4809;48.224;8.572;2022-09-02T15:31:52;35.90;25.50
9542;DHT22;4809;48.224;8.572;2022-09-02T15:34:20;35.60;25.30
9542;DHT22;4809;48.224;8.572;2022-09-02T15:36:46;36.50;24.10
9542;DHT22;4809;48.224;8.572;2022-09-02T15:39:12;36.70;23.80
9542;DHT22;4809;48.224;8.572;2022-09-02T15:41:38;37.00;25.20
9542;DHT22;4809;48.224;8.572;2022-09-02T15:44:06;36.90;25.50
9542;DHT22;4809;48.224;8.572;2022-09-02T15:46:34;35.50;26.40
9542;DHT22;4809;48.224;8.572;2022-09-02T15:49:03;34.70;26.70
9542;DHT22;4809;48.224;8.572;2022-09-02T15:51:30;34.10;27.30
9542;DHT22;4809;48.224;8.572;2022-09-02T15:53:58;33.60;27.40
9542;DHT22;4809;48.224;8.572;2022-09-02T15:56:26;32.70;28.70
9542;DHT22;4809;48.224;8.572;2022-09-02T15:58:58;31.60;30.90
9542;DHT22;4809;48.224;8.572;2022-09-02T16:01:29;30.30;32.10
9542;DHT22;4809;48.224;8.572;2022-09-02T16:03:55;29.30;34.70
9542;DHT22;4809;48.224;8.572;2022-09-02T16:06:22;28.80;37.10
9542;DHT22;4809;48.224;8.572;2022-09-02T16:08:49;28.20;37.40
9542;DHT22;4809;48.224;8.572;2022-09-02T16:11:15;28.10;39.00
9542;DHT22;4809;48.224;8.572;2022-09-02T16:13:41;27.90;37.90
9542;DHT22;4809;48.224;8.572;2022-09-02T16:16:09;27.60;38.80
9542;DHT22;4809;48.224;8.572;2022-09-02T16:18:36;27.20;40.30
9542;DHT22;4809;48.224;8.572;2022-09-02T16:21:03;26.80;39.80
9542;DHT22;4809;48.224;8.572;2022-09-02T16:23:29;26.50;41.50
9542;DHT22;4809;48.224;8.572;2022-09-02T16:26:24;26.20;41.00
9542;DHT22;4809;48.224;8.572;2022-09-02T16:28:53;26.00;42.50
9542;DHT22;4809;48.224;8.572;2022-09-02T16:31:20;25.80;43.70
9542;DHT22;4809;48.224;8.572;2022-09-02T16:33:53;25.60;43.40
9542;DHT22;4809;48.224;8.572;2022-09-02T16:36:19;25.50;44.70
9542;DHT22;4809;48.224;8.572;2022-09-02T16:38:45;25.50;44.60
9542;DHT22;4809;48.224;8.572;2022-09-02T16:41:31;25.20;44.10
9542;DHT22;4809;48.224;8.572;2022-09-02T16:44:01;25.00;43.50
9542;DHT22;4809;48.224;8.572;2022-09-02T16:46:28;24.90;44.50
9542;DHT22;4809;48.224;8.572;2022-09-02T16:48:54;24.80;44.90
9542;DHT22;4809;48.224;8.572;2022-09-02T16:51:21;24.70;45.20
9542;DHT22;4809;48.224;8.572;2022-09-02T16:53:52;24.50;45.40
9542;DHT22;4809;48.224;8.572;2022-09-02T16:56:18;24.30;45.90
9542;DHT22;4809;48.224;8.572;2022-09-02T16:58:46;24.30;46.10
9542;DHT22;4809;48.224;8.572;2022-09-02T17:01:12;24.10;47.20
9542;DHT22;4809;48.224;8.572;2022-09-02T17:03:38;24.00;48.10
9542;DHT22;4809;48.224;8.572;2022-09-02T17:06:05;23.90;48.20
9542;DHT22;4809;48.224;8.572;2022-09-02T17:08:30;23.80;48.90
9542;DHT22;4809;48.224;8.572;2022-09-02T17:11:29;23.60;49.10
9542;DHT22;4809;48.224;8.572;2022-09-02T17:14:07;23.30;50.30
9542;DHT22;4809;48.224;8.572;2022-09-02T17:16:40;23.10;50.70
9542;DHT22;4809;48.224;8.572;2022-09-02T17:19:06;22.80;51.30
9542;DHT22;4809;48.224;8.572;2022-09-02T17:21:43;22.60;51.80
9542;DHT22;4809;48.224;8.572;2022-09-02T17:24:10;22.40;52.80
9542;DHT22;4809;48.224;8.572;2022-09-02T17:26:39;22.10;53.80
9542;DHT22;4809;48.224;8.572;2022-09-02T17:29:10;21.80;57.50
9542;DHT22;4809;48.224;8.572;2022-09-02T17:31:36;21.60;60.20
9542;DHT22;4809;48.224;8.572;2022-09-02T17:34:04;21.40;63.40
9542;DHT22;4809;48.224;8.572;2022-09-02T17:36:32;21.20;62.00
9542;DHT22;4809;48.224;8.572;2022-09-02T17:39:00;21.10;62.70
9542;DHT22;4809;48.224;8.572;2022-09-02T17:41:26;20.90;62.10
9542;DHT22;4809;48.224;8.572;2022-09-02T17:44:12;20.80;63.00
9542;DHT22;4809;48.224;8.572;2022-09-02T17:46:39;20.60;62.10
9542;DHT22;4809;48.224;8.572;2022-09-02T17:49:05;20.50;61.40
9542;DHT22;4809;48.224;8.572;2022-09-02T17:51:32;20.40;62.20
9542;DHT22;4809;48.224;8.572;2022-09-02T17:53:58;20.30;63.60
9542;DHT22;4809;48.224;8.572;2022-09-02T18:07:49;19.80;67.10
9542;DHT22;4809;48.224;8.572;2022-09-02T18:10:18;19.60;67.70
9542;DHT22;4809;48.224;8.572;2022-09-02T18:12:44;19.50;67.80
9542;DHT22;4809;48.224;8.572;2022-09-02T18:15:15;19.40;68.40
9542;DHT22;4809;48.224;8.572;2022-09-02T18:17:51;19.30;69.10
9542;DHT22;4809;48.224;8.572;2022-09-02T18:44:52;18.90;71.00
9542;DHT22;4809;48.224;8.572;2022-09-02T18:47:24;18.90;71.00
9542;DHT22;4809;48.224;8.572;2022-09-02T18:49:53;18.90;70.70
9542;DHT22;4809;48.224;8.572;2022-09-02T18:52:19;18.90;70.90
9542;DHT22;4809;48.224;8.572;2022-09-02T18:57:23;19.00;71.70
9542;DHT22;4809;48.224;8.572;2022-09-02T19:02:33;18.90;71.90
9542;DHT22;4809;48.224;8.572;2022-09-02T19:05:03;19.00;71.90
9542;DHT22;4809;48.224;8.572;2022-09-02T19:07:33;18.90;72.40